createdAt,value
2023-03-23T15:58:40.094Z,5.07
2023-03-23T16:01:22.403Z,3.45
2023-03-23T16:03:59.255Z,3.25
2023-03-23T16:06:28.921Z,2.20
2023-03-23T16:08:56.552Z,3.47
2023-03-23T16:11:26.068Z,2.22
2023-03-23T16:13:53.040Z,3.97
2023-03-23T16:16:43.381Z,5.60
2023-03-23T16:19:15.017Z,3.60
2023-03-23T16:21:43.032Z,4.47
2023-03-23T16:24:10.475Z,4.93
2023-03-23T16:26:40.388Z,3.60
2023-03-23T16:29:17.256Z,3.45
2023-03-23T16:31:51.625Z,5.30
2023-03-23T16:34:18.540Z,6.25
2023-03-23T16:36:45.385Z,3.65
2023-03-23T16:39:12.861Z,8.68
2023-03-23T16:41:41.150Z,4.00
2023-03-23T16:44:07.998Z,7.63
2023-03-23T16:46:34.981Z,12.00
2023-03-23T16:49:01.853Z,14.85
2023-03-23T16:51:28.662Z,16.60
2023-03-23T16:53:55.491Z,19.83
2023-03-23T16:56:22.353Z,19.15
2023-03-23T16:58:49.638Z,22.23
2023-03-23T17:01:16.575Z,18.55
2023-03-23T17:03:44.099Z,14.35
2023-03-23T17:06:11.108Z,15.88
2023-03-23T17:08:38.030Z,15.27
2023-03-23T17:11:05.849Z,23.05
2023-03-23T17:13:34.653Z,18.92
2023-03-23T17:16:01.636Z,34.35
2023-03-23T17:18:29.251Z,30.25
2023-03-23T17:20:56.617Z,34.67
2023-03-23T17:23:24.431Z,29.13
2023-03-23T17:25:51.753Z,15.27
2023-03-23T17:28:20.432Z,13.90
2023-03-23T17:30:48.562Z,13.38
2023-03-23T17:33:15.372Z,15.82
2023-03-23T17:35:43.354Z,14.77
2023-03-23T17:38:10.810Z,11.25
2023-03-23T17:40:37.702Z,12.27
2023-03-23T17:43:05.113Z,12.95
2023-03-23T17:45:32.145Z,14.05
2023-03-23T17:47:59.100Z,30.80
2023-03-23T17:50:26.054Z,21.55
2023-03-23T17:52:52.931Z,30.95
2023-03-23T17:55:19.880Z,115.45
2023-03-23T17:57:46.774Z,44.90
2023-03-23T18:00:14.531Z,15.45
2023-03-23T18:02:42.060Z,18.33
2023-03-23T18:05:09.881Z,34.85
2023-03-23T18:07:37.670Z,43.72
2023-03-23T18:10:11.974Z,21.75
2023-03-23T18:12:42.373Z,21.27
2023-03-23T18:15:10.454Z,18.98
2023-03-23T18:17:38.045Z,18.58
2023-03-23T18:20:07.352Z,21.42
2023-03-23T18:22:34.761Z,24.90
2023-03-23T18:25:02.793Z,23.90
2023-03-23T18:27:30.062Z,18.95
2023-03-23T18:29:57.270Z,24.65
2023-03-23T18:32:24.170Z,19.67
2023-03-23T18:34:51.044Z,23.90
2023-03-23T18:37:18.288Z,28.08
2023-03-23T18:39:45.352Z,18.95
2023-03-23T18:42:12.400Z,25.70
2023-03-23T18:44:39.322Z,22.95
2023-03-23T18:47:06.151Z,47.92
2023-03-23T18:49:33.582Z,39.90
2023-03-23T18:52:01.097Z,46.90
2023-03-23T18:54:29.191Z,46.38
2023-03-23T18:57:00.411Z,41.75
2023-03-23T18:59:30.637Z,34.20
2023-03-23T19:02:13.212Z,44.03
2023-03-23T19:04:41.136Z,50.95
2023-03-23T19:07:08.193Z,35.03
2023-03-23T19:09:35.229Z,38.08
2023-03-23T19:12:01.997Z,38.83
2023-03-23T19:14:29.269Z,44.03
2023-03-23T19:16:56.250Z,45.30
2023-03-23T19:19:24.934Z,37.47
2023-03-23T19:24:21.278Z,34.22
2023-03-23T19:26:48.722Z,33.30
2023-03-23T19:29:27.171Z,41.17
2023-03-23T19:31:58.296Z,35.45
2023-03-23T19:34:27.528Z,50.08
2023-03-23T19:37:04.199Z,37.50
2023-03-23T19:39:34.301Z,50.03
2023-03-23T19:42:01.854Z,41.92
2023-03-23T19:44:29.535Z,36.42
2023-03-23T19:46:56.792Z,39.78
2023-03-23T19:49:25.051Z,41.47
2023-03-23T19:52:06.095Z,44.08
2023-03-23T19:54:37.527Z,37.83
2023-03-23T19:57:06.200Z,47.63
2023-03-23T19:59:33.975Z,43.90
2023-03-23T20:02:01.398Z,43.50
2023-03-23T20:04:29.168Z,35.53
2023-03-23T20:06:57.095Z,33.80
2023-03-23T20:09:25.322Z,30.20
2023-03-23T20:11:53.547Z,31.45
2023-03-23T20:14:21.066Z,29.08
2023-03-23T20:16:48.772Z,29.05
2023-03-23T20:19:16.499Z,34.15
2023-03-23T20:21:43.616Z,29.48
2023-03-23T20:24:10.436Z,21.60
2023-03-23T20:26:40.589Z,27.70
2023-03-23T20:29:08.711Z,22.95
2023-03-23T20:31:38.566Z,18.77
2023-03-23T20:34:11.180Z,18.23
2023-03-23T20:36:42.037Z,19.02
2023-03-23T20:39:21.196Z,22.45
2023-03-23T20:41:50.955Z,25.85
2023-03-23T20:44:23.187Z,28.27
2023-03-23T20:46:51.634Z,34.40
2023-03-23T20:49:20.730Z,31.05
2023-03-23T20:51:48.399Z,23.10
2023-03-23T20:54:16.479Z,20.48
2023-03-23T20:56:44.353Z,16.52
2023-03-23T20:59:12.428Z,17.40
2023-03-23T21:01:40.003Z,18.75
2023-03-23T21:04:14.982Z,13.95
2023-03-23T21:06:43.102Z,14.52
2023-03-23T21:09:10.460Z,9.88
2023-03-23T21:11:37.812Z,14.73
2023-03-23T21:14:06.080Z,10.18
2023-03-23T21:16:33.151Z,12.32
2023-03-23T21:19:00.623Z,8.52
2023-03-23T21:21:28.298Z,8.65
2023-03-23T21:23:57.575Z,9.68
2023-03-23T21:26:27.898Z,9.07
2023-03-23T21:28:59.715Z,8.15
2023-03-23T21:31:30.739Z,7.63
2023-03-23T21:34:01.339Z,7.85
2023-03-23T21:36:28.787Z,10.75
2023-03-23T21:38:56.398Z,10.38
2023-03-23T21:41:23.734Z,11.55
2023-03-23T21:43:50.685Z,8.80
2023-03-23T21:46:18.251Z,8.48
2023-03-23T21:48:51.658Z,8.50
2023-03-23T21:51:27.315Z,7.60
2023-03-23T21:53:55.441Z,9.90
2023-03-23T21:56:25.005Z,7.25
2023-03-23T21:58:52.397Z,8.35
2023-03-23T22:01:19.920Z,7.70
2023-03-23T22:03:47.621Z,9.45
2023-03-23T22:06:23.412Z,7.57
2023-03-23T22:08:51.456Z,5.95
2023-03-23T22:11:27.504Z,8.43
2023-03-23T22:13:56.105Z,9.38
2023-03-23T22:16:23.973Z,9.25
2023-03-23T22:18:52.603Z,11.00
2023-03-23T22:21:22.313Z,12.45
2023-03-23T22:23:49.863Z,16.85
2023-03-23T22:26:17.192Z,27.58
2023-03-23T22:28:46.465Z,39.15
2023-03-23T22:31:23.621Z,35.47
2023-03-23T22:33:55.006Z,29.92
2023-03-23T22:36:27.508Z,23.73
2023-03-23T22:38:56.325Z,25.90
2023-03-23T22:41:27.100Z,26.05
2023-03-23T22:43:54.464Z,28.45
2023-03-23T22:46:21.998Z,10.05
2023-03-23T22:48:49.021Z,20.27
2023-03-23T22:51:17.223Z,21.05
2023-03-23T22:53:45.004Z,8.77
2023-03-23T22:56:12.913Z,8.90
2023-03-23T22:58:40.701Z,9.18
2023-03-23T23:01:14.132Z,6.78
2023-03-23T23:03:41.613Z,6.43
2023-03-23T23:06:10.142Z,7.57
2023-03-23T23:08:37.473Z,7.15
2023-03-23T23:11:05.364Z,7.20
2023-03-23T23:13:33.451Z,7.18
2023-03-23T23:16:01.550Z,7.00
2023-03-23T23:18:29.155Z,5.82
2023-03-23T23:20:59.526Z,7.55
2023-03-23T23:23:28.099Z,5.85
2023-03-23T23:25:55.482Z,6.18
2023-03-23T23:28:22.946Z,6.88
2023-03-23T23:30:51.491Z,3.88
2023-03-23T23:33:19.240Z,5.90
2023-03-23T23:35:46.696Z,3.55
2023-03-23T23:38:14.881Z,4.65
2023-03-23T23:40:43.218Z,5.22
2023-03-23T23:43:15.805Z,6.30
2023-03-23T23:45:43.517Z,3.60
2023-03-23T23:48:11.492Z,3.78
2023-03-23T23:50:38.472Z,6.97
2023-03-23T23:53:05.689Z,4.57
2023-03-23T23:55:32.834Z,3.45
2023-03-23T23:57:59.622Z,7.28
